DucheSS Of Scandinavia — OUZI2 — position and weather

sailwx.info

Track history (hours):
 
Tides and Currents Weather Stations Pressure Air Temp Water Temp Dewpoint Dewpoint Depression Visibility Wind Speed Wind Dir Waves Ship Positions

DucheSS Of Scandinavia

Operator: DFDS A/S

Last reported at 2017-Feb-22 16:34 UTC. Time now 2017-Feb-22 17:23 UTC.
Position N 58°57' E 011°03'.

Length 134 m; draft 5.4 m.

Type: Passenger vessel. MMSI: 219002929.

Date/timePositionNaut miles runAvg speedWind from/ knotsBaromVisibWave heightAir tempDewpointWater temp
2017-Feb-22 16:34N 58°57' E 011°03'1514.7
2017-Feb-22 15:33N 59°01' E 010°35'1312.4
2017-Feb-22 14:33N 59°07' E 010°14'1 0.9
2017-Feb-22 13:34N 59°08' E 010°14'10 9.5
2017-Feb-22 12:34N 59°00' E 010°26'1514.6
2017-Feb-22 11:34N 59°01' E 010°55'9 9.3
2017-Feb-22 10:34N 58°56' E 011°10'4 4.3
2017-Feb-22 09:34N 58°58' E 011°03'1615.8
2017-Feb-22 08:33N 59°00' E 010°32'1211.9
2017-Feb-22 07:33N 59°07' E 010°14'1 1.2
2017-Feb-22 06:34N 59°06' E 010°14'0 0.0
2017-Feb-22 05:34N 59°06' E 010°14'0 0.0
2017-Feb-22 04:33N 59°06' E 010°14'0 0.0
2017-Feb-22 03:31N 59°06' E 010°14'0 0.0
2017-Feb-22 02:31N 59°06' E 010°14'0 0.0
2017-Feb-22 01:32N 59°06' E 010°14'0 0.0
2017-Feb-22 00:33N 59°06' E 010°14'0 0.0
2017-Feb-21 23:33N 59°06' E 010°14'0 0.0
2017-Feb-21 22:31N 59°06' E 010°14'0 0.0
2017-Feb-21 21:33N 59°06' E 010°14'0 0.1
2017-Feb-21 20:33N 59°06' E 010°14'1 0.9
2017-Feb-21 19:33N 59°05' E 010°14'1413.8
2017-Feb-21 18:34N 59°01' E 010°40'1515.0
2017-Feb-21 17:34N 58°56' E 011°07'0 0.1
2017-Feb-21 16:34N 58°56' E 011°07'1515.3
2017-Feb-21 15:34N 59°01' E 010°39'1313.2
2017-Feb-21 14:33N 59°05' E 010°14'3 2.6
2017-Feb-21 13:33N 59°08' E 010°14'8 8.2
2017-Feb-21 12:34N 59°01' E 010°23'1616.5
2017-Feb-21 11:34N 59°00' E 010°55'9 8.8
2017-Feb-21 10:34N 58°56' E 011°10'4 4.3
2017-Feb-21 09:34N 58°58' E 011°03'1615.7
2017-Feb-21 08:34N 59°01' E 010°33'1211.8
2017-Feb-21 07:33N 59°07' E 010°14'0 0.4
2017-Feb-21 06:33N 59°07' E 010°14'1 0.8
2017-Feb-21 05:33N 59°06' E 010°14'0 0.0
2017-Feb-21 04:34N 59°06' E 010°14'0 0.0
2017-Feb-21 03:31N 59°06' E 010°14'0 0.0
2017-Feb-21 02:32N 59°06' E 010°14'0 0.0
2017-Feb-21 01:30N 59°06' E 010°14'0 0.0
2017-Feb-21 00:33N 59°06' E 010°14'0 0.0
2017-Feb-20 23:31N 59°06' E 010°14'0 0.0
2017-Feb-20 22:32N 59°06' E 010°14'0 0.0
2017-Feb-20 21:32N 59°06' E 010°14'0 0.2
2017-Feb-20 20:34N 59°06' E 010°14'1 1.1
2017-Feb-20 19:33N 59°05' E 010°14'1413.7
2017-Feb-20 18:34N 59°01' E 010°40'1514.9
2017-Feb-20 17:34N 58°56' E 011°07'0 0.1
2017-Feb-20 16:33N 58°56' E 011°07'1514.7
2017-Feb-20 15:33N 59°01' E 010°40'1413.7
2017-Feb-20 14:34N 59°05' E 010°15'3 2.8
2017-Feb-20 13:33N 59°08' E 010°14'10 9.9
2017-Feb-20 12:34N 59°01' E 010°27'1414.4
2017-Feb-20 11:34N 59°00' E 010°55'9 8.8
2017-Feb-20 10:34N 58°56' E 011°10'4 4.1
2017-Feb-20 09:33N 58°58' E 011°03'1615.6
2017-Feb-20 08:33N 59°01' E 010°33'1212.1
2017-Feb-20 07:33N 59°07' E 010°14'1 1.2
2017-Feb-20 06:34N 59°06' E 010°14'0 0.1
2017-Feb-20 05:31N 59°06' E 010°14'0 0.0
2017-Feb-20 04:26N 59°06' E 010°14'0 0.0
2017-Feb-20 03:33N 59°06' E 010°14'0 0.0
2017-Feb-20 02:31N 59°06' E 010°14'0 0.0
2017-Feb-20 01:31N 59°06' E 010°14'0 0.0
2017-Feb-20 00:32N 59°06' E 010°14'0 0.0
2017-Feb-19 23:33N 59°06' E 010°14'0 0.0
2017-Feb-19 22:30N 59°06' E 010°14'0 0.0
2017-Feb-19 21:34N 59°06' E 010°14'0 0.1
2017-Feb-19 20:33N 59°06' E 010°14'2 2.5
2017-Feb-19 19:34N 59°04' E 010°15'1414.1
2017-Feb-19 18:33N 59°01' E 010°42'1414.4
2017-Feb-19 17:34N 58°56' E 011°08'1 0.8
2017-Feb-19 16:34N 58°56' E 011°06'1615.5
2017-Feb-19 15:33N 59°01' E 010°38'1312.9
2017-Feb-19 14:34N 59°06' E 010°14'2 1.9
2017-Feb-19 13:34N 59°08' E 010°14'10 9.7
2017-Feb-19 12:34N 59°01' E 010°27'1514.6
2017-Feb-19 11:34N 59°00' E 010°55'9 8.9
2017-Feb-19 10:34N 58°56' E 011°10'4 3.8
2017-Feb-19 09:33N 58°57' E 011°03'1615.6
2017-Feb-19 08:33N 59°01' E 010°34'1212.2
2017-Feb-19 07:34N 59°07' E 010°14'1 1.1
2017-Feb-19 06:33N 59°06' E 010°14'0 0.0
2017-Feb-19 05:33N 59°06' E 010°14'0 0.0
2017-Feb-19 04:33N 59°06' E 010°14'0 0.0
2017-Feb-19 03:31N 59°06' E 010°14'0 0.0
2017-Feb-19 02:32N 59°06' E 010°14'0 0.0
2017-Feb-19 01:32N 59°06' E 010°14'0 0.0
2017-Feb-19 00:33N 59°06' E 010°14'0 0.0
2017-Feb-18 23:28N 59°06' E 010°14'0 0.0
2017-Feb-18 22:31N 59°06' E 010°14'0 0.0
2017-Feb-18 21:32N 59°06' E 010°14'0 0.1
2017-Feb-18 20:33N 59°06' E 010°14'2 2.4
2017-Feb-18 19:33N 59°04' E 010°15'1414.1
2017-Feb-18 18:34N 59°01' E 010°42'1514.7
2017-Feb-18 17:33N 58°56' E 011°08'1 1.0
2017-Feb-18 16:33N 58°56' E 011°06'1515.3
2017-Feb-18 15:33N 59°01' E 010°38'1313.5
2017-Feb-18 14:34N 59°06' E 010°14'1 1.4
2017-Feb-18 13:33N 59°08' E 010°14'9 8.7
2017-Feb-18 12:34N 59°01' E 010°25'1615.5
2017-Feb-18 11:33N 59°01' E 010°55'9 9.2
2017-Feb-18 10:34N 58°56' E 011°10'6 5.9
2017-Feb-18 09:34N 58°59' E 011°00'1716.9
2017-Feb-18 08:33N 59°00' E 010°28'1010.2
2017-Feb-18 07:33N 59°08' E 010°14'1 0.5
2017-Feb-18 06:34N 59°07' E 010°14'1 0.9
2017-Feb-18 05:33N 59°06' E 010°14'0 0.0
2017-Feb-18 04:33N 59°06' E 010°14'0 0.0
2017-Feb-18 03:33N 59°06' E 010°14'0 0.0
2017-Feb-18 02:34N 59°06' E 010°14'0 0.0
2017-Feb-18 01:34N 59°06' E 010°14'0 0.0
2017-Feb-18 00:34N 59°06' E 010°14'0 0.0
2017-Feb-17 23:34N 59°06' E 010°14'0 0.0
2017-Feb-17 22:34N 59°06' E 010°14'0 0.0
2017-Feb-17 21:34N 59°06' E 010°14'1 1.3
2017-Feb-17 20:33N 59°07' E 010°14'3 3.2
2017-Feb-17 19:33N 59°04' E 010°15'1514.9
2017-Feb-17 18:34N 59°01' E 010°43'1514.5
2017-Feb-17 17:34N 58°56' E 011°09'1 0.8
2017-Feb-17 16:34N 58°56' E 011°08'1515.4
2017-Feb-17 15:33N 59°01' E 010°39'1413.8
2017-Feb-17 14:34N 59°06' E 010°14'2 1.9
2017-Feb-17 13:34N 59°08' E 010°14'9 9.0
2017-Feb-17 12:33N 59°01' E 010°25'1615.7
2017-Feb-17 11:34N 59°00' E 010°56'9 8.6
2017-Feb-17 10:34N 58°56' E 011°10'4 4.4
2017-Feb-17 09:33N 58°58' E 011°02'1616.1
2017-Feb-17 08:33N 59°00' E 010°32'1211.7
2017-Feb-17 07:34N 59°08' E 010°14'1 1.3
2017-Feb-17 06:34N 59°06' E 010°14'0 0.1
2017-Feb-17 05:34N 59°06' E 010°14'0 0.0
2017-Feb-17 04:34N 59°06' E 010°14'0 0.0
2017-Feb-17 03:34N 59°06' E 010°14'0 0.0
2017-Feb-17 02:34N 59°06' E 010°14'0 0.0
2017-Feb-17 01:34N 59°06' E 010°14'0 0.0
2017-Feb-17 00:33N 59°06' E 010°14'0 0.0
2017-Feb-16 23:33N 59°06' E 010°14'0 0.0
2017-Feb-16 22:33N 59°06' E 010°14'0 0.0
2017-Feb-16 21:33N 59°06' E 010°14'0 0.3
2017-Feb-16 20:33N 59°06' E 010°14'2 2.5
2017-Feb-16 19:33N 59°04' E 010°15'1514.9
2017-Feb-16 18:33N 59°02' E 010°43'1414.2
2017-Feb-16 17:34N 58°56' E 011°09'1 1.1
2017-Feb-16 16:34N 58°56' E 011°06'1515.3
2017-Feb-16 15:33N 59°01' E 010°38'1413.6
2017-Feb-16 14:34N 59°06' E 010°14'1 1.3
2017-Feb-16 13:34N 59°08' E 010°14'9 9.4
2017-Feb-16 12:33N 59°01' E 010°26'1515.0
2017-Feb-16 11:33N 59°01' E 010°55'9 8.9
2017-Feb-16 10:33N 58°56' E 011°10'4 3.9
2017-Feb-16 09:34N 58°57' E 011°03'1615.8
2017-Feb-16 08:33N 58°60' E 010°33'1212.3
2017-Feb-16 07:33N 59°07' E 010°14'1 1.2
2017-Feb-16 06:34N 59°06' E 010°14'0 0.0
2017-Feb-16 05:33N 59°06' E 010°14'0 0.0
2017-Feb-16 04:33N 59°06' E 010°14'0 0.0
2017-Feb-16 03:33N 59°06' E 010°14'0 0.0
2017-Feb-16 02:28N 59°06' E 010°14'0 0.0
2017-Feb-16 01:32N 59°06' E 010°14'0 0.0
2017-Feb-16 00:32N 59°06' E 010°14'0 0.0
2017-Feb-15 23:33N 59°06' E 010°14'0 0.0
2017-Feb-15 22:31N 59°06' E 010°14'0 0.0
2017-Feb-15 21:31N 59°06' E 010°14'0 0.4
2017-Feb-15 20:34N 59°07' E 010°14'3 3.0
2017-Feb-15 19:33N 59°04' E 010°15'1414.5
2017-Feb-15 18:34N 59°02' E 010°43'1414.5
2017-Feb-15 17:34N 58°56' E 011°09'1 1.1
2017-Feb-15 16:34N 58°56' E 011°07'1514.8
2017-Feb-15 15:33N 59°01' E 010°40'1413.7
2017-Feb-15 14:33N 59°06' E 010°14'2 2.0
2017-Feb-15 13:33N 59°08' E 010°14'9 8.6
2017-Feb-15 12:33N 59°01' E 010°24'1716.5
2017-Feb-15 11:33N 59°00' E 010°56'8 8.3
2017-Feb-15 10:34N 58°56' E 011°10'4 3.9
2017-Feb-15 09:33N 58°57' E 011°03'1616.1
2017-Feb-15 08:33N 59°01' E 010°33'1211.8
2017-Feb-15 07:33N 59°07' E 010°14'1 1.2
2017-Feb-15 06:34N 59°06' E 010°14'0 0.0
2017-Feb-15 05:33N 59°06' E 010°14'0 0.0
2017-Feb-15 04:33N 59°06' E 010°14'0 0.0
2017-Feb-15 03:31N 59°06' E 010°14'0 0.0
2017-Feb-15 02:32N 59°06' E 010°14'0 0.0
2017-Feb-15 01:32N 59°06' E 010°14'0 0.0
2017-Feb-15 00:33N 59°06' E 010°14'0 0.0
2017-Feb-14 23:31N 59°06' E 010°14'0 0.0
2017-Feb-14 22:31N 59°06' E 010°14'0 0.0
2017-Feb-14 21:32N 59°06' E 010°14'1 1.1
2017-Feb-14 20:33N 59°07' E 010°14'3 2.7
2017-Feb-14 19:34N 59°05' E 010°15'1413.6
2017-Feb-14 18:33N 59°01' E 010°40'1515.1
2017-Feb-14 17:33N 58°56' E 011°08'0 0.3
2017-Feb-14 16:33N 58°56' E 011°07'1515.0
2017-Feb-14 15:33N 59°01' E 010°39'1413.8
2017-Feb-14 14:33N 59°06' E 010°14'2 1.9
2017-Feb-14 13:33N 59°08' E 010°14'8 7.5
2017-Feb-14 12:33N 59°01' E 010°22'1716.8
2017-Feb-14 11:33N 59°01' E 010°54'9 9.5
2017-Feb-14 10:34N 58°56' E 011°10'4 4.2
2017-Feb-14 09:33N 58°58' E 011°03'1615.6
2017-Feb-14 08:33N 59°00' E 010°33'1212.2
2017-Feb-14 07:33N 59°07' E 010°14'1 1.2
2017-Feb-14 06:34N 59°06' E 010°14'0 0.0
2017-Feb-14 05:32N 59°06' E 010°14'0 0.0
2017-Feb-14 04:33N 59°06' E 010°14'0 0.0
2017-Feb-14 03:31N 59°06' E 010°14'0 0.0
2017-Feb-14 02:29N 59°06' E 010°14'0 0.0
2017-Feb-14 01:29N 59°06' E 010°14'0 0.0
2017-Feb-14 00:33N 59°06' E 010°14'0 0.0
2017-Feb-13 23:34N 59°06' E 010°14'0 0.0
2017-Feb-13 22:31N 59°06' E 010°14'0 0.0
2017-Feb-13 21:32N 59°06' E 010°14'0 0.0
2017-Feb-13 20:34N 59°06' E 010°14'2 2.2
2017-Feb-13 19:34N 59°04' E 010°15'1413.8
2017-Feb-13 18:34N 59°01' E 010°41'1515.0
2017-Feb-13 17:34N 58°56' E 011°08'0 0.5
2017-Feb-13 16:33N 58°56' E 011°07'1514.8
2017-Feb-13 15:34N 59°01' E 010°41'1413.9
2017-Feb-13 14:34N 59°05' E 010°15'3 2.7
2017-Feb-13 13:33N 59°08' E 010°14'10 9.5
2017-Feb-13 12:34N 59°01' E 010°27'1514.6
2017-Feb-13 11:34N 59°00' E 010°55'9 9.0
2017-Feb-13 10:34N 58°56' E 011°10'4 4.1
2017-Feb-13 09:34N 58°58' E 011°03'1514.8
2017-Feb-13 08:34N 59°01' E 010°35'1312.6
2017-Feb-13 07:33N 59°07' E 010°14'1 0.8
2017-Feb-13 06:34N 59°06' E 010°14'0 0.0
2017-Feb-13 05:31N 59°06' E 010°14'0 0.0
2017-Feb-13 04:31N 59°06' E 010°14'0 0.0
2017-Feb-13 03:32N 59°06' E 010°14'0 0.0
2017-Feb-13 02:33N 59°06' E 010°14'0 0.0
2017-Feb-13 01:33N 59°06' E 010°14'0 0.0
2017-Feb-13 00:31N 59°06' E 010°14'0 0.0
2017-Feb-12 23:32N 59°06' E 010°14'0 0.0
2017-Feb-12 22:29N 59°06' E 010°14'0 0.0
2017-Feb-12 21:33N 59°06' E 010°14'0 0.2
2017-Feb-12 20:33N 59°06' E 010°14'2 2.4
2017-Feb-12 19:34N 59°04' E 010°15'1413.7
2017-Feb-12 18:34N 59°01' E 010°41'1514.7
2017-Feb-12 17:34N 58°56' E 011°08'  
Track history (hours):
 
Tides and Currents Weather Stations Pressure Air Temp Water Temp Dewpoint Dewpoint Depression Visibility Wind Speed Wind Dir Waves Ship Positions

DucheSS Of Scandinavia

Operator: DFDS A/S

Last reported at 2017-Feb-22 16:34 UTC. Time now 2017-Feb-22 17:23 UTC.
Position N 58°57' E 011°03'.

Length 134 m; draft 5.4 m.

Type: Passenger vessel. MMSI: 219002929.

Date/timePositionNaut miles runAvg speedWind from/ knotsBaromVisibWave heightAir tempDewpointWater temp
2017-Feb-22 16:34N 58°57' E 011°03'1514.7
2017-Feb-22 15:33N 59°01' E 010°35'1312.4
2017-Feb-22 14:33N 59°07' E 010°14'1 0.9
2017-Feb-22 13:34N 59°08' E 010°14'10 9.5
2017-Feb-22 12:34N 59°00' E 010°26'1514.6
2017-Feb-22 11:34N 59°01' E 010°55'9 9.3
2017-Feb-22 10:34N 58°56' E 011°10'4 4.3
2017-Feb-22 09:34N 58°58' E 011°03'1615.8
2017-Feb-22 08:33N 59°00' E 010°32'1211.9
2017-Feb-22 07:33N 59°07' E 010°14'1 1.2
2017-Feb-22 06:34N 59°06' E 010°14'0 0.0
2017-Feb-22 05:34N 59°06' E 010°14'0 0.0
2017-Feb-22 04:33N 59°06' E 010°14'0 0.0
2017-Feb-22 03:31N 59°06' E 010°14'0 0.0
2017-Feb-22 02:31N 59°06' E 010°14'0 0.0
2017-Feb-22 01:32N 59°06' E 010°14'0 0.0
2017-Feb-22 00:33N 59°06' E 010°14'0 0.0
2017-Feb-21 23:33N 59°06' E 010°14'0 0.0
2017-Feb-21 22:31N 59°06' E 010°14'0 0.0
2017-Feb-21 21:33N 59°06' E 010°14'0 0.1
2017-Feb-21 20:33N 59°06' E 010°14'1 0.9
2017-Feb-21 19:33N 59°05' E 010°14'1413.8
2017-Feb-21 18:34N 59°01' E 010°40'1515.0
2017-Feb-21 17:34N 58°56' E 011°07'0 0.1
2017-Feb-21 16:34N 58°56' E 011°07'1515.3
2017-Feb-21 15:34N 59°01' E 010°39'1313.2
2017-Feb-21 14:33N 59°05' E 010°14'3 2.6
2017-Feb-21 13:33N 59°08' E 010°14'8 8.2
2017-Feb-21 12:34N 59°01' E 010°23'1616.5
2017-Feb-21 11:34N 59°00' E 010°55'9 8.8
2017-Feb-21 10:34N 58°56' E 011°10'4 4.3
2017-Feb-21 09:34N 58°58' E 011°03'1615.7
2017-Feb-21 08:34N 59°01' E 010°33'1211.8
2017-Feb-21 07:33N 59°07' E 010°14'0 0.4
2017-Feb-21 06:33N 59°07' E 010°14'1 0.8
2017-Feb-21 05:33N 59°06' E 010°14'0 0.0
2017-Feb-21 04:34N 59°06' E 010°14'0 0.0
2017-Feb-21 03:31N 59°06' E 010°14'0 0.0
2017-Feb-21 02:32N 59°06' E 010°14'0 0.0
2017-Feb-21 01:30N 59°06' E 010°14'0 0.0
2017-Feb-21 00:33N 59°06' E 010°14'0 0.0
2017-Feb-20 23:31N 59°06' E 010°14'0 0.0
2017-Feb-20 22:32N 59°06' E 010°14'0 0.0
2017-Feb-20 21:32N 59°06' E 010°14'0 0.2
2017-Feb-20 20:34N 59°06' E 010°14'1 1.1
2017-Feb-20 19:33N 59°05' E 010°14'1413.7
2017-Feb-20 18:34N 59°01' E 010°40'1514.9
2017-Feb-20 17:34N 58°56' E 011°07'0 0.1
2017-Feb-20 16:33N 58°56' E 011°07'1514.7
2017-Feb-20 15:33N 59°01' E 010°40'1413.7
2017-Feb-20 14:34N 59°05' E 010°15'3 2.8
2017-Feb-20 13:33N 59°08' E 010°14'10 9.9
2017-Feb-20 12:34N 59°01' E 010°27'1414.4
2017-Feb-20 11:34N 59°00' E 010°55'9 8.8
2017-Feb-20 10:34N 58°56' E 011°10'4 4.1
2017-Feb-20 09:33N 58°58' E 011°03'1615.6
2017-Feb-20 08:33N 59°01' E 010°33'1212.1
2017-Feb-20 07:33N 59°07' E 010°14'1 1.2
2017-Feb-20 06:34N 59°06' E 010°14'0 0.1
2017-Feb-20 05:31N 59°06' E 010°14'0 0.0
2017-Feb-20 04:26N 59°06' E 010°14'0 0.0
2017-Feb-20 03:33N 59°06' E 010°14'0 0.0
2017-Feb-20 02:31N 59°06' E 010°14'0 0.0
2017-Feb-20 01:31N 59°06' E 010°14'0 0.0
2017-Feb-20 00:32N 59°06' E 010°14'0 0.0
2017-Feb-19 23:33N 59°06' E 010°14'0 0.0
2017-Feb-19 22:30N 59°06' E 010°14'0 0.0
2017-Feb-19 21:34N 59°06' E 010°14'0 0.1
2017-Feb-19 20:33N 59°06' E 010°14'2 2.5
2017-Feb-19 19:34N 59°04' E 010°15'1414.1
2017-Feb-19 18:33N 59°01' E 010°42'1414.4
2017-Feb-19 17:34N 58°56' E 011°08'1 0.8
2017-Feb-19 16:34N 58°56' E 011°06'1615.5
2017-Feb-19 15:33N 59°01' E 010°38'1312.9
2017-Feb-19 14:34N 59°06' E 010°14'2 1.9
2017-Feb-19 13:34N 59°08' E 010°14'10 9.7
2017-Feb-19 12:34N 59°01' E 010°27'1514.6
2017-Feb-19 11:34N 59°00' E 010°55'9 8.9
2017-Feb-19 10:34N 58°56' E 011°10'4 3.8
2017-Feb-19 09:33N 58°57' E 011°03'1615.6
2017-Feb-19 08:33N 59°01' E 010°34'1212.2
2017-Feb-19 07:34N 59°07' E 010°14'1 1.1
2017-Feb-19 06:33N 59°06' E 010°14'0 0.0
2017-Feb-19 05:33N 59°06' E 010°14'0 0.0
2017-Feb-19 04:33N 59°06' E 010°14'0 0.0
2017-Feb-19 03:31N 59°06' E 010°14'0 0.0
2017-Feb-19 02:32N 59°06' E 010°14'0 0.0
2017-Feb-19 01:32N 59°06' E 010°14'0 0.0
2017-Feb-19 00:33N 59°06' E 010°14'0 0.0
2017-Feb-18 23:28N 59°06' E 010°14'0 0.0
2017-Feb-18 22:31N 59°06' E 010°14'0 0.0
2017-Feb-18 21:32N 59°06' E 010°14'0 0.1
2017-Feb-18 20:33N 59°06' E 010°14'2 2.4
2017-Feb-18 19:33N 59°04' E 010°15'1414.1
2017-Feb-18 18:34N 59°01' E 010°42'1514.7
2017-Feb-18 17:33N 58°56' E 011°08'1 1.0
2017-Feb-18 16:33N 58°56' E 011°06'1515.3
2017-Feb-18 15:33N 59°01' E 010°38'1313.5
2017-Feb-18 14:34N 59°06' E 010°14'1 1.4
2017-Feb-18 13:33N 59°08' E 010°14'9 8.7
2017-Feb-18 12:34N 59°01' E 010°25'1615.5
2017-Feb-18 11:33N 59°01' E 010°55'9 9.2
2017-Feb-18 10:34N 58°56' E 011°10'6 5.9
2017-Feb-18 09:34N 58°59' E 011°00'1716.9
2017-Feb-18 08:33N 59°00' E 010°28'1010.2
2017-Feb-18 07:33N 59°08' E 010°14'1 0.5
2017-Feb-18 06:34N 59°07' E 010°14'1 0.9
2017-Feb-18 05:33N 59°06' E 010°14'0 0.0
2017-Feb-18 04:33N 59°06' E 010°14'0 0.0
2017-Feb-18 03:33N 59°06' E 010°14'0 0.0
2017-Feb-18 02:34N 59°06' E 010°14'0 0.0
2017-Feb-18 01:34N 59°06' E 010°14'0 0.0
2017-Feb-18 00:34N 59°06' E 010°14'0 0.0
2017-Feb-17 23:34N 59°06' E 010°14'0 0.0
2017-Feb-17 22:34N 59°06' E 010°14'0 0.0
2017-Feb-17 21:34N 59°06' E 010°14'1 1.3
2017-Feb-17 20:33N 59°07' E 010°14'3 3.2
2017-Feb-17 19:33N 59°04' E 010°15'1514.9
2017-Feb-17 18:34N 59°01' E 010°43'1514.5
2017-Feb-17 17:34N 58°56' E 011°09'1 0.8
2017-Feb-17 16:34N 58°56' E 011°08'1515.4
2017-Feb-17 15:33N 59°01' E 010°39'1413.8
2017-Feb-17 14:34N 59°06' E 010°14'2 1.9
2017-Feb-17 13:34N 59°08' E 010°14'9 9.0
2017-Feb-17 12:33N 59°01' E 010°25'1615.7
2017-Feb-17 11:34N 59°00' E 010°56'9 8.6
2017-Feb-17 10:34N 58°56' E 011°10'4 4.4
2017-Feb-17 09:33N 58°58' E 011°02'1616.1
2017-Feb-17 08:33N 59°00' E 010°32'1211.7
2017-Feb-17 07:34N 59°08' E 010°14'1 1.3
2017-Feb-17 06:34N 59°06' E 010°14'0 0.1
2017-Feb-17 05:34N 59°06' E 010°14'0 0.0
2017-Feb-17 04:34N 59°06' E 010°14'0 0.0
2017-Feb-17 03:34N 59°06' E 010°14'0 0.0
2017-Feb-17 02:34N 59°06' E 010°14'0 0.0
2017-Feb-17 01:34N 59°06' E 010°14'0 0.0
2017-Feb-17 00:33N 59°06' E 010°14'0 0.0
2017-Feb-16 23:33N 59°06' E 010°14'0 0.0
2017-Feb-16 22:33N 59°06' E 010°14'0 0.0
2017-Feb-16 21:33N 59°06' E 010°14'0 0.3
2017-Feb-16 20:33N 59°06' E 010°14'2 2.5
2017-Feb-16 19:33N 59°04' E 010°15'1514.9
2017-Feb-16 18:33N 59°02' E 010°43'1414.2
2017-Feb-16 17:34N 58°56' E 011°09'1 1.1
2017-Feb-16 16:34N 58°56' E 011°06'1515.3
2017-Feb-16 15:33N 59°01' E 010°38'1413.6
2017-Feb-16 14:34N 59°06' E 010°14'1 1.3
2017-Feb-16 13:34N 59°08' E 010°14'9 9.4
2017-Feb-16 12:33N 59°01' E 010°26'1515.0
2017-Feb-16 11:33N 59°01' E 010°55'9 8.9
2017-Feb-16 10:33N 58°56' E 011°10'4 3.9
2017-Feb-16 09:34N 58°57' E 011°03'1615.8
2017-Feb-16 08:33N 58°60' E 010°33'1212.3
2017-Feb-16 07:33N 59°07' E 010°14'1 1.2
2017-Feb-16 06:34N 59°06' E 010°14'0 0.0
2017-Feb-16 05:33N 59°06' E 010°14'0 0.0
2017-Feb-16 04:33N 59°06' E 010°14'0 0.0
2017-Feb-16 03:33N 59°06' E 010°14'0 0.0
2017-Feb-16 02:28N 59°06' E 010°14'0 0.0
2017-Feb-16 01:32N 59°06' E 010°14'0 0.0
2017-Feb-16 00:32N 59°06' E 010°14'0 0.0
2017-Feb-15 23:33N 59°06' E 010°14'0 0.0
2017-Feb-15 22:31N 59°06' E 010°14'0 0.0
2017-Feb-15 21:31N 59°06' E 010°14'0 0.4
2017-Feb-15 20:34N 59°07' E 010°14'3 3.0
2017-Feb-15 19:33N 59°04' E 010°15'1414.5
2017-Feb-15 18:34N 59°02' E 010°43'1414.5
2017-Feb-15 17:34N 58°56' E 011°09'1 1.1
2017-Feb-15 16:34N 58°56' E 011°07'1514.8
2017-Feb-15 15:33N 59°01' E 010°40'1413.7
2017-Feb-15 14:33N 59°06' E 010°14'2 2.0
2017-Feb-15 13:33N 59°08' E 010°14'9 8.6
2017-Feb-15 12:33N 59°01' E 010°24'1716.5
2017-Feb-15 11:33N 59°00' E 010°56'8 8.3
2017-Feb-15 10:34N 58°56' E 011°10'4 3.9
2017-Feb-15 09:33N 58°57' E 011°03'1616.1
2017-Feb-15 08:33N 59°01' E 010°33'1211.8
2017-Feb-15 07:33N 59°07' E 010°14'1 1.2
2017-Feb-15 06:34N 59°06' E 010°14'0 0.0
2017-Feb-15 05:33N 59°06' E 010°14'0 0.0
2017-Feb-15 04:33N 59°06' E 010°14'0 0.0
2017-Feb-15 03:31N 59°06' E 010°14'0 0.0
2017-Feb-15 02:32N 59°06' E 010°14'0 0.0
2017-Feb-15 01:32N 59°06' E 010°14'0 0.0
2017-Feb-15 00:33N 59°06' E 010°14'0 0.0
2017-Feb-14 23:31N 59°06' E 010°14'0 0.0
2017-Feb-14 22:31N 59°06' E 010°14'0 0.0
2017-Feb-14 21:32N 59°06' E 010°14'1 1.1
2017-Feb-14 20:33N 59°07' E 010°14'3 2.7
2017-Feb-14 19:34N 59°05' E 010°15'1413.6
2017-Feb-14 18:33N 59°01' E 010°40'1515.1
2017-Feb-14 17:33N 58°56' E 011°08'0 0.3
2017-Feb-14 16:33N 58°56' E 011°07'1515.0
2017-Feb-14 15:33N 59°01' E 010°39'1413.8
2017-Feb-14 14:33N 59°06' E 010°14'2 1.9
2017-Feb-14 13:33N 59°08' E 010°14'8 7.5
2017-Feb-14 12:33N 59°01' E 010°22'1716.8
2017-Feb-14 11:33N 59°01' E 010°54'9 9.5
2017-Feb-14 10:34N 58°56' E 011°10'4 4.2
2017-Feb-14 09:33N 58°58' E 011°03'1615.6
2017-Feb-14 08:33N 59°00' E 010°33'1212.2
2017-Feb-14 07:33N 59°07' E 010°14'1 1.2
2017-Feb-14 06:34N 59°06' E 010°14'0 0.0
2017-Feb-14 05:32N 59°06' E 010°14'0 0.0
2017-Feb-14 04:33N 59°06' E 010°14'0 0.0
2017-Feb-14 03:31N 59°06' E 010°14'0 0.0
2017-Feb-14 02:29N 59°06' E 010°14'0 0.0
2017-Feb-14 01:29N 59°06' E 010°14'0 0.0
2017-Feb-14 00:33N 59°06' E 010°14'0 0.0
2017-Feb-13 23:34N 59°06' E 010°14'0 0.0
2017-Feb-13 22:31N 59°06' E 010°14'0 0.0
2017-Feb-13 21:32N 59°06' E 010°14'0 0.0
2017-Feb-13 20:34N 59°06' E 010°14'2 2.2
2017-Feb-13 19:34N 59°04' E 010°15'1413.8
2017-Feb-13 18:34N 59°01' E 010°41'1515.0
2017-Feb-13 17:34N 58°56' E 011°08'0 0.5
2017-Feb-13 16:33N 58°56' E 011°07'1514.8
2017-Feb-13 15:34N 59°01' E 010°41'1413.9
2017-Feb-13 14:34N 59°05' E 010°15'3 2.7
2017-Feb-13 13:33N 59°08' E 010°14'10 9.5
2017-Feb-13 12:34N 59°01' E 010°27'1514.6
2017-Feb-13 11:34N 59°00' E 010°55'9 9.0
2017-Feb-13 10:34N 58°56' E 011°10'4 4.1
2017-Feb-13 09:34N 58°58' E 011°03'1514.8
2017-Feb-13 08:34N 59°01' E 010°35'1312.6
2017-Feb-13 07:33N 59°07' E 010°14'1 0.8
2017-Feb-13 06:34N 59°06' E 010°14'0 0.0
2017-Feb-13 05:31N 59°06' E 010°14'0 0.0
2017-Feb-13 04:31N 59°06' E 010°14'0 0.0
2017-Feb-13 03:32N 59°06' E 010°14'0 0.0
2017-Feb-13 02:33N 59°06' E 010°14'0 0.0
2017-Feb-13 01:33N 59°06' E 010°14'0 0.0
2017-Feb-13 00:31N 59°06' E 010°14'0 0.0
2017-Feb-12 23:32N 59°06' E 010°14'0 0.0
2017-Feb-12 22:29N 59°06' E 010°14'0 0.0
2017-Feb-12 21:33N 59°06' E 010°14'0 0.2
2017-Feb-12 20:33N 59°06' E 010°14'2 2.4
2017-Feb-12 19:34N 59°04' E 010°15'1413.7
2017-Feb-12 18:34N 59°01' E 010°41'1514.7
2017-Feb-12 17:34N 58°56' E 011°08'  

Dump ship's entire track history